createdAt,value
2023-10-20T00:00:59.773Z,2.60
2023-10-20T00:06:02.744Z,3.35
2023-10-20T00:11:06.145Z,2.65
2023-10-20T00:16:10.939Z,2.50
2023-10-20T00:21:13.903Z,3.70
2023-10-20T00:26:17.101Z,2.50
2023-10-20T00:31:21.434Z,3.35
2023-10-20T00:36:24.427Z,2.45
2023-10-20T00:41:27.382Z,2.45
2023-10-20T00:46:32.193Z,2.22
2023-10-20T00:51:35.179Z,2.28
2023-10-20T00:56:38.119Z,2.83
2023-10-20T01:01:42.405Z,3.13
2023-10-20T01:06:45.449Z,2.65
2023-10-20T01:11:48.366Z,2.85
2023-10-20T01:16:52.671Z,3.35
2023-10-20T01:21:55.785Z,2.75
2023-10-20T01:27:00.118Z,2.22
2023-10-20T01:32:03.991Z,2.42
2023-10-20T01:37:08.162Z,2.30
2023-10-20T01:42:12.520Z,2.30
2023-10-20T01:47:15.793Z,2.20
2023-10-20T01:52:18.767Z,2.83
2023-10-20T01:57:23.042Z,2.50
2023-10-20T02:02:26.247Z,2.10
2023-10-20T02:07:29.179Z,2.45
2023-10-20T02:12:33.456Z,4.20
2023-10-20T02:17:36.773Z,2.00
2023-10-20T02:22:40.213Z,2.03
2023-10-20T02:27:45.413Z,1.80
2023-10-20T02:32:48.508Z,1.90
2023-10-20T02:37:51.534Z,2.35
2023-10-20T02:42:55.799Z,1.65
2023-10-20T02:47:58.877Z,1.88
2023-10-20T02:53:02.150Z,2.42
2023-10-20T02:58:06.596Z,1.58
2023-10-20T03:03:10.651Z,2.13
2023-10-20T03:08:13.776Z,1.70
2023-10-20T03:13:20.904Z,1.65
2023-10-20T03:18:24.737Z,1.90
2023-10-20T03:23:27.840Z,1.60
2023-10-20T03:28:32.119Z,1.83
2023-10-20T03:33:35.298Z,1.70
2023-10-20T03:38:39.122Z,1.80
2023-10-20T03:43:43.587Z,1.63
2023-10-20T03:48:46.797Z,2.00
2023-10-20T03:53:52.021Z,3.08
2023-10-20T03:58:57.446Z,2.38
2023-10-20T04:04:00.360Z,2.45
2023-10-20T04:09:03.982Z,1.55
2023-10-20T04:14:08.705Z,1.88
2023-10-20T04:19:14.078Z,1.92
2023-10-20T04:24:21.157Z,2.22
2023-10-20T04:29:36.054Z,2.28
2023-10-20T04:35:01.591Z,1.60
2023-10-20T04:40:22.706Z,1.60
2023-10-20T04:45:53.032Z,1.92
2023-10-20T04:51:18.327Z,1.48
2023-10-20T04:56:38.544Z,1.40
2023-10-20T05:01:44.599Z,2.08
2023-10-20T05:06:56.184Z,1.58
2023-10-20T05:11:59.135Z,2.28
2023-10-20T05:17:05.617Z,1.40
2023-10-20T05:22:09.542Z,1.90
2023-10-20T05:27:13.620Z,1.60
2023-10-20T05:32:18.408Z,1.40
2023-10-20T05:37:22.631Z,1.60
2023-10-20T05:42:25.916Z,1.52
2023-10-20T05:47:30.406Z,2.20
2023-10-20T05:52:35.206Z,2.20
2023-10-20T05:57:38.100Z,2.35
2023-10-20T06:02:42.553Z,2.17
2023-10-20T06:07:45.758Z,1.88
2023-10-20T06:12:48.856Z,2.95
2023-10-20T06:17:53.582Z,3.25
2023-10-20T06:22:56.629Z,3.80
2023-10-20T06:27:59.604Z,5.47
2023-10-20T06:33:18.053Z,5.00
2023-10-20T06:38:31.542Z,6.43
2023-10-20T06:43:35.541Z,4.10
2023-10-20T06:48:39.816Z,4.20
2023-10-20T06:53:42.887Z,4.40
2023-10-20T06:58:46.259Z,3.92
2023-10-20T07:03:50.601Z,8.98
2023-10-20T07:08:53.868Z,5.25
2023-10-20T07:13:57.097Z,5.45
2023-10-20T07:19:01.494Z,5.13
2023-10-20T07:24:05.201Z,6.63
2023-10-20T07:29:08.398Z,4.95
2023-10-20T07:34:12.885Z,6.38
2023-10-20T07:39:18.384Z,7.22
2023-10-20T07:44:21.387Z,10.15
2023-10-20T07:49:25.675Z,7.78
2023-10-20T07:54:28.627Z,6.63
2023-10-20T07:59:31.682Z,6.03
2023-10-20T08:04:37.953Z,5.50
2023-10-20T08:09:41.546Z,14.38
2023-10-20T08:14:44.510Z,10.13
2023-10-20T08:19:48.862Z,5.90
2023-10-20T08:24:52.302Z,7.60
2023-10-20T08:29:58.076Z,7.07
2023-10-20T08:35:02.471Z,4.18
2023-10-20T08:40:11.625Z,9.65
2023-10-20T08:45:16.064Z,6.32
2023-10-20T08:50:22.063Z,10.90
2023-10-20T08:55:25.067Z,6.28
2023-10-20T09:00:30.863Z,8.07
2023-10-20T09:05:36.987Z,5.28
2023-10-20T09:10:43.605Z,6.18
2023-10-20T09:15:46.754Z,4.78
2023-10-20T09:20:51.103Z,6.00
2023-10-20T09:25:54.140Z,5.95
2023-10-20T09:31:00.277Z,11.77
2023-10-20T09:36:05.232Z,4.20
2023-10-20T09:41:13.760Z,5.70
2023-10-20T09:46:30.638Z,4.75
2023-10-20T09:51:35.658Z,3.95
2023-10-20T09:56:39.222Z,4.13
2023-10-20T10:01:45.505Z,4.90
2023-10-20T10:06:51.097Z,3.30
2023-10-20T10:11:57.146Z,4.28
2023-10-20T10:17:02.517Z,3.40
2023-10-20T10:22:06.880Z,4.50
2023-10-20T10:32:20.386Z,4.47
2023-10-20T10:37:35.783Z,3.97
2023-10-20T10:42:43.996Z,4.38
2023-10-20T10:47:47.572Z,3.05
2023-10-20T10:52:52.946Z,4.63
2023-10-20T11:03:03.577Z,2.58
2023-10-20T11:08:14.794Z,4.72
2023-10-20T11:13:23.832Z,3.95
2023-10-20T11:18:27.935Z,2.70
2023-10-20T11:23:35.473Z,2.92
2023-10-20T11:28:39.243Z,3.55
2023-10-20T11:33:43.820Z,2.85
2023-10-20T11:38:48.195Z,4.10
2023-10-20T11:43:51.165Z,3.95
2023-10-20T11:48:54.442Z,3.33
2023-10-20T11:53:59.842Z,3.13
2023-10-20T11:59:03.023Z,3.38
2023-10-20T12:04:07.231Z,2.83
2023-10-20T12:09:14.597Z,2.42
2023-10-20T12:14:19.099Z,2.13
2023-10-20T12:19:22.163Z,3.75
2023-10-20T12:24:26.632Z,2.78
2023-10-20T12:29:29.787Z,1.98
2023-10-20T12:34:33.586Z,2.67
2023-10-20T12:39:40.851Z,3.03
2023-10-20T12:44:44.679Z,2.28
2023-10-20T12:49:47.762Z,2.30
2023-10-20T12:54:53.772Z,2.00
2023-10-20T12:59:56.934Z,3.17
2023-10-20T13:05:01.029Z,3.95
2023-10-20T13:10:06.673Z,3.05
2023-10-20T13:15:11.445Z,2.38
2023-10-20T13:20:14.860Z,2.85
2023-10-20T13:25:20.564Z,2.65
2023-10-20T13:30:23.586Z,2.10
2023-10-20T13:35:26.670Z,2.65
2023-10-20T13:40:31.528Z,2.10
2023-10-20T13:45:34.545Z,2.20
2023-10-20T13:50:41.203Z,3.97
2023-10-20T13:55:47.053Z,2.63
2023-10-20T14:00:52.301Z,3.92
2023-10-20T14:05:57.285Z,2.15
2023-10-20T14:11:05.244Z,1.80
2023-10-20T14:16:08.505Z,1.83
2023-10-20T14:21:11.494Z,2.50
2023-10-20T14:26:15.872Z,2.78
2023-10-20T14:31:18.991Z,2.67
2023-10-20T14:36:22.082Z,3.30
2023-10-20T14:41:26.464Z,2.17
2023-10-20T14:46:29.480Z,2.60
2023-10-20T14:51:32.599Z,2.33
2023-10-20T14:56:37.364Z,1.25
2023-10-20T15:01:40.308Z,2.83
2023-10-20T15:06:43.880Z,1.80
2023-10-20T15:11:48.274Z,1.63
2023-10-20T15:16:51.258Z,2.40
2023-10-20T15:21:54.529Z,1.50
2023-10-20T15:26:58.858Z,1.35
2023-10-20T15:32:01.834Z,1.73
2023-10-20T15:37:04.796Z,2.65
2023-10-20T15:42:09.269Z,1.52
2023-10-20T15:47:12.225Z,1.67
2023-10-20T15:52:15.478Z,0.98
2023-10-20T15:57:20.094Z,1.50
2023-10-20T16:02:23.048Z,1.85
2023-10-20T16:07:26.206Z,0.90
2023-10-20T16:12:30.541Z,1.17
2023-10-20T16:17:33.482Z,1.50
2023-10-20T16:22:36.442Z,1.20
2023-10-20T16:27:40.701Z,1.30
2023-10-20T16:32:43.720Z,0.93
2023-10-20T16:37:46.709Z,0.95
2023-10-20T16:42:51.373Z,2.00
2023-10-20T16:47:54.449Z,0.90
2023-10-20T16:52:58.462Z,1.95
2023-10-20T16:58:02.717Z,1.00
2023-10-20T17:03:07.021Z,2.47
2023-10-20T17:08:10.279Z,1.40
2023-10-20T17:13:14.592Z,1.08
2023-10-20T17:18:17.638Z,1.33
2023-10-20T17:23:20.725Z,1.80
2023-10-20T17:28:25.003Z,0.65
2023-10-20T17:33:28.326Z,1.17
2023-10-20T17:38:31.552Z,1.25
2023-10-20T17:43:37.342Z,1.90
2023-10-20T17:48:41.263Z,5.30
2023-10-20T17:53:44.651Z,3.55
2023-10-20T17:58:49.002Z,2.28
2023-10-20T18:03:52.013Z,4.43
2023-10-20T18:08:55.033Z,1.98
2023-10-20T18:13:59.601Z,1.13
2023-10-20T18:19:03.544Z,1.45
2023-10-20T18:24:08.805Z,1.98
2023-10-20T18:29:13.400Z,1.60
2023-10-20T18:34:16.350Z,1.35
2023-10-20T18:39:19.310Z,1.25
2023-10-20T18:44:23.699Z,1.85
2023-10-20T18:49:26.763Z,0.50
2023-10-20T18:54:29.704Z,3.95
2023-10-20T18:59:34.129Z,0.60
2023-10-20T19:04:38.382Z,3.50
2023-10-20T19:09:43.535Z,2.03
2023-10-20T19:14:48.231Z,1.73
2023-10-20T19:19:51.223Z,0.73
2023-10-20T19:24:54.162Z,1.30
2023-10-20T19:29:58.537Z,0.95
2023-10-20T19:35:01.663Z,0.95
2023-10-20T19:40:05.128Z,1.85
2023-10-20T19:45:11.663Z,0.70
2023-10-20T19:50:15.004Z,0.80
2023-10-20T19:55:18.263Z,1.58
2023-10-20T20:00:22.601Z,0.70
2023-10-20T20:05:28.720Z,0.75
2023-10-20T20:10:31.726Z,0.82
2023-10-20T20:15:36.001Z,1.30
2023-10-20T20:20:39.306Z,2.08
2023-10-20T20:25:42.321Z,0.50
2023-10-20T20:30:46.741Z,1.02
2023-10-20T20:35:49.720Z,0.88
2023-10-20T20:40:53.227Z,0.77
2023-10-20T20:45:57.808Z,0.47
2023-10-20T20:51:01.064Z,0.65
2023-10-20T20:56:04.564Z,0.85
2023-10-20T21:01:12.590Z,0.73
2023-10-20T21:06:15.658Z,0.73
2023-10-20T21:11:18.685Z,0.80
2023-10-20T21:16:23.094Z,0.63
2023-10-20T21:21:27.458Z,0.50
2023-10-20T21:26:31.899Z,1.58
2023-10-20T21:31:36.231Z,0.82
2023-10-20T21:36:39.257Z,0.85
2023-10-20T21:41:42.347Z,0.93
2023-10-20T21:46:46.702Z,5.68
2023-10-20T21:51:51.588Z,2.53
2023-10-20T21:56:54.555Z,2.45
2023-10-20T22:02:08.987Z,0.93
2023-10-20T22:07:13.241Z,1.13
2023-10-20T22:12:16.286Z,1.88
2023-10-20T22:17:20.554Z,1.50
2023-10-20T22:22:23.540Z,0.55
2023-10-20T22:27:28.260Z,1.95
2023-10-20T22:32:32.622Z,0.52
2023-10-20T22:37:36.428Z,1.38
2023-10-20T22:42:39.372Z,1.17
2023-10-20T22:47:43.702Z,0.50
2023-10-20T22:52:48.086Z,0.55
2023-10-20T22:57:51.342Z,1.05
2023-10-20T23:02:55.781Z,1.30
2023-10-20T23:07:58.895Z,1.00
2023-10-20T23:13:01.826Z,0.45
2023-10-20T23:18:06.517Z,1.08
2023-10-20T23:23:09.531Z,2.50
2023-10-20T23:28:12.742Z,0.90
2023-10-20T23:33:17.289Z,0.63
2023-10-20T23:38:20.388Z,0.73
2023-10-20T23:43:23.507Z,0.90
2023-10-20T23:48:27.815Z,1.33
2023-10-20T23:53:30.758Z,0.60
2023-10-20T23:58:33.735Z,0.73
